Time;durP1;ratioP1;P1;durP2;ratioP2;P2;SDS_P1;SDS_P2;PMS_P1;PMS_P2;Temp;Humidity;BMP_temperature;BMP_pressure;BME280_temperature;BME280_humidity;BME280_pressure;Samples;Min_cycle;Max_cycle;Signal;HPM_P1;HPM_P2
2022/03/16 00:00:24;;;;;;;0.45;0.20;;;;;;;;;;5048704;28;20032;-81
2022/03/16 00:02:50;;;;;;;1.58;1.40;;;;;;;;;;5051170;28;20063;-80
2022/03/16 00:05:18;;;;;;;0.90;0.90;;;;;;;;;;5051258;28;20036;-79
2022/03/16 00:07:43;;;;;;;0.55;0.55;;;;;;;;;;5042037;28;20029;-81
2022/03/16 00:10:12;;;;;;;1.65;1.38;;;;;;;;;;5050952;28;20029;-80
2022/03/16 00:12:38;;;;;;;2.05;1.95;;;;;;;;;;5054902;28;20039;-80
2022/03/16 00:15:05;;;;;;;0.95;0.68;;;;;;;;;;5056303;28;20049;-78
2022/03/16 00:17:30;;;;;;;0.55;0.55;;;;;;;;;;5038811;28;20036;-79
2022/03/16 00:19:58;;;;;;;0.45;0.45;;;;;;;;;;5055080;28;20095;-80
2022/03/16 00:22:23;;;;;;;0.63;0.63;;;;;;;;;;5056063;28;20040;-81
2022/03/16 00:24:48;;;;;;;0.85;0.85;;;;;;;;;;5038385;28;20028;-80
2022/03/16 00:27:14;;;;;;;0.80;0.80;;;;;;;;;;5038101;28;20017;-80
2022/03/16 00:29:39;;;;;;;2.33;1.55;;;;;;;;;;5055946;28;20021;-81
2022/03/16 00:32:07;;;;;;;1.48;1.38;;;;;;;;;;5056173;28;20029;-81
2022/03/16 00:34:33;;;;;;;1.77;1.17;;;;;;;;;;5055823;28;20577;-80
2022/03/16 00:36:58;;;;;;;0.47;0.43;;;;;;;;;;5058118;28;20025;-79
2022/03/16 00:39:24;;;;;;;1.92;1.75;;;;;;;;;;5055797;28;20458;-80
2022/03/16 00:41:49;;;;;;;4.35;2.20;;;;;;;;;;5055695;28;20043;-79
2022/03/16 00:44:17;;;;;;;0.60;0.60;;;;;;;;;;5055816;28;20078;-77
2022/03/16 00:46:43;;;;;;;0.38;0.28;;;;;;;;;;5055518;28;20339;-81
2022/03/16 00:49:08;;;;;;;0.08;0.08;;;;;;;;;;5055828;28;20426;-79
2022/03/16 00:51:36;;;;;;;2.03;0.57;;;;;;;;;;5055818;28;20091;-81
2022/03/16 00:54:04;;;;;;;1.98;1.45;;;;;;;;;;5055857;28;20029;-81
2022/03/16 00:56:32;;;;;;;0.10;0.10;;;;;;;;;;5054632;28;20442;-80
2022/03/16 00:58:57;;;;;;;0.32;0.32;;;;;;;;;;5054444;28;20120;-80
2022/03/16 01:01:22;;;;;;;2.65;1.55;;;;;;;;;;5055868;28;20141;-80
2022/03/16 01:03:48;;;;;;;0.00;0.00;;;;;;;;;;5055912;28;20056;-80
2022/03/16 01:06:15;;;;;;;0.63;0.52;;;;;;;;;;5060381;28;20456;-80
2022/03/16 01:08:43;;;;;;;1.85;0.57;;;;;;;;;;5055661;28;20029;-81
2022/03/16 01:11:08;;;;;;;0.40;0.40;;;;;;;;;;5054755;28;20029;-80
2022/03/16 01:13:34;;;;;;;0.20;0.20;;;;;;;;;;5052160;28;20009;-75
2022/03/16 01:16:00;;;;;;;1.00;0.90;;;;;;;;;;5050236;28;20021;-76
2022/03/16 01:18:25;;;;;;;0.38;0.38;;;;;;;;;;5053542;28;20527;-76
2022/03/16 01:20:53;;;;;;;0.10;0.10;;;;;;;;;;5054923;28;20029;-75
2022/03/16 01:23:18;;;;;;;0.60;0.60;;;;;;;;;;5054051;28;20449;-76
2022/03/16 01:25:43;;;;;;;0.93;0.73;;;;;;;;;;5054945;28;20075;-76
2022/03/16 01:28:08;;;;;;;1.85;0.60;;;;;;;;;;5054879;28;20029;-76
2022/03/16 01:30:34;;;;;;;0.35;0.35;;;;;;;;;;5053552;28;20021;-76
2022/03/16 01:33:02;;;;;;;0.55;0.55;;;;;;;;;;5054137;28;20028;-75
2022/03/16 01:35:27;;;;;;;1.42;0.77;;;;;;;;;;5055524;28;20025;-76
2022/03/16 01:37:55;;;;;;;0.00;0.00;;;;;;;;;;5055097;28;20413;-76
2022/03/16 01:40:20;;;;;;;1.13;0.90;;;;;;;;;;5051750;28;20032;-75
2022/03/16 01:42:45;;;;;;;1.08;0.68;;;;;;;;;;5054336;28;20091;-75
2022/03/16 01:45:11;;;;;;;0.25;0.25;;;;;;;;;;5054409;28;20446;-76
2022/03/16 01:47:39;;;;;;;0.60;0.60;;;;;;;;;;5054854;28;20064;-76
2022/03/16 01:50:08;;;;;;;0.65;0.65;;;;;;;;;;5053014;28;20024;-76
2022/03/16 01:52:36;;;;;;;0.68;0.68;;;;;;;;;;5053739;28;20135;-76
2022/03/16 01:55:05;;;;;;;0.68;0.68;;;;;;;;;;5053648;28;20020;-76
2022/03/16 01:57:32;;;;;;;0.57;0.57;;;;;;;;;;5053444;28;20024;-75
2022/03/16 01:59:58;;;;;;;1.27;1.17;;;;;;;;;;5053292;28;20029;-76
2022/03/16 02:02:23;;;;;;;0.45;0.32;;;;;;;;;;5053172;28;20087;-75
2022/03/16 02:04:48;;;;;;;2.60;1.90;;;;;;;;;;5054380;28;20033;-75
2022/03/16 02:07:14;;;;;;;0.10;0.10;;;;;;;;;;5053416;28;20029;-75
2022/03/16 02:09:39;;;;;;;1.95;1.38;;;;;;;;;;5053076;28;20602;-75
2022/03/16 02:12:05;;;;;;;1.30;1.17;;;;;;;;;;5053974;28;20085;-76
2022/03/16 02:14:31;;;;;;;0.20;0.20;;;;;;;;;;5053082;28;20363;-75
2022/03/16 02:16:57;;;;;;;1.77;1.45;;;;;;;;;;5053909;28;20051;-76
2022/03/16 02:19:23;;;;;;;2.17;2.08;;;;;;;;;;5054063;28;20029;-76
2022/03/16 02:21:57;;;;;;;1.27;1.15;;;;;;;;;;5053223;28;20326;-76
2022/03/16 02:24:29;;;;;;;1.73;1.63;;;;;;;;;;5051770;28;20143;-76
2022/03/16 02:26:55;;;;;;;1.55;1.20;;;;;;;;;;5053190;28;20021;-77
2022/03/16 02:29:21;;;;;;;0.70;0.70;;;;;;;;;;5052283;28;20319;-77
2022/03/16 02:31:46;;;;;;;0.43;0.43;;;;;;;;;;5053578;28;20036;-77
2022/03/16 02:34:11;;;;;;;0.60;0.60;;;;;;;;;;5049931;28;20108;-77
2022/03/16 02:36:37;;;;;;;0.50;0.50;;;;;;;;;;5057723;28;20102;-78
2022/03/16 02:39:02;;;;;;;1.05;1.05;;;;;;;;;;5060373;28;20108;-78
2022/03/16 02:41:27;;;;;;;0.55;0.55;;;;;;;;;;5055588;28;20025;-80
2022/03/16 02:43:53;;;;;;;2.13;0.65;;;;;;;;;;5056945;28;20108;-77
2022/03/16 02:46:18;;;;;;;0.10;0.10;;;;;;;;;;5055005;28;20044;-77
2022/03/16 02:48:46;;;;;;;2.00;1.90;;;;;;;;;;5036685;28;20453;-77
2022/03/16 02:51:11;;;;;;;0.55;0.55;;;;;;;;;;5053651;28;20025;-77
2022/03/16 02:53:36;;;;;;;1.17;1.02;;;;;;;;;;5053794;28;20350;-77
2022/03/16 02:56:02;;;;;;;0.20;0.20;;;;;;;;;;5052651;28;20401;-76
2022/03/16 02:58:32;;;;;;;0.82;0.82;;;;;;;;;;5053328;28;20036;-77
2022/03/16 03:00:57;;;;;;;1.58;1.38;;;;;;;;;;5052486;28;20048;-76
2022/03/16 03:03:23;;;;;;;1.00;1.00;;;;;;;;;;5050702;28;20366;-77
2022/03/16 03:05:51;;;;;;;1.90;1.80;;;;;;;;;;5052714;28;20024;-76
2022/03/16 03:08:19;;;;;;;1.55;1.17;;;;;;;;;;5052636;28;20047;-77
2022/03/16 03:10:45;;;;;;;1.17;0.77;;;;;;;;;;5052428;28;20040;-77
2022/03/16 03:13:11;;;;;;;4.85;1.40;;;;;;;;;;5053641;28;20025;-77
2022/03/16 03:15:37;;;;;;;1.60;1.50;;;;;;;;;;5053623;28;20052;-77
2022/03/16 03:18:02;;;;;;;3.00;2.80;;;;;;;;;;5053708;28;20074;-77
2022/03/16 03:20:28;;;;;;;2.80;0.85;;;;;;;;;;5053457;28;20017;-76
2022/03/16 03:22:53;;;;;;;1.20;1.15;;;;;;;;;;5053183;28;20039;-76
2022/03/16 03:25:18;;;;;;;1.02;1.00;;;;;;;;;;5053415;28;20108;-76
2022/03/16 03:27:46;;;;;;;0.52;0.52;;;;;;;;;;5053469;28;20036;-77
2022/03/16 03:30:11;;;;;;;0.20;0.20;;;;;;;;;;5053275;28;20112;-76
2022/03/16 03:32:37;;;;;;;0.73;0.73;;;;;;;;;;5035894;28;20127;-76
2022/03/16 03:35:05;;;;;;;0.85;0.73;;;;;;;;;;5053228;28;20040;-76
2022/03/16 03:37:32;;;;;;;0.22;0.22;;;;;;;;;;5052746;28;20466;-76
2022/03/16 03:39:58;;;;;;;0.55;0.55;;;;;;;;;;5035508;28;20052;-76
2022/03/16 03:42:28;;;;;;;4.78;1.05;;;;;;;;;;5055642;28;20453;-76
2022/03/16 03:44:53;;;;;;;1.35;1.25;;;;;;;;;;5056476;28;20035;-77
2022/03/16 03:47:19;;;;;;;0.40;0.40;;;;;;;;;;5056721;28;20021;-76
2022/03/16 03:49:44;;;;;;;0.20;0.20;;;;;;;;;;5057257;28;20067;-77
2022/03/16 03:52:10;;;;;;;0.30;0.30;;;;;;;;;;5056789;28;20036;-76
2022/03/16 03:54:36;;;;;;;0.85;0.47;;;;;;;;;;5048922;28;20025;-76
2022/03/16 03:57:02;;;;;;;1.48;1.23;;;;;;;;;;5056819;28;20052;-76
2022/03/16 03:59:27;;;;;;;0.30;0.30;;;;;;;;;;5055706;28;20462;-76
2022/03/16 04:01:52;;;;;;;0.95;0.95;;;;;;;;;;5056001;28;20142;-76
2022/03/16 04:04:21;;;;;;;1.52;1.42;;;;;;;;;;5052424;28;20128;-76
2022/03/16 04:06:46;;;;;;;0.43;0.32;;;;;;;;;;5077508;28;20028;-76
2022/03/16 04:09:13;;;;;;;0.80;0.68;;;;;;;;;;5038812;28;20108;-76
2022/03/16 04:11:39;;;;;;;0.65;0.65;;;;;;;;;;5055482;28;20036;-75
2022/03/16 04:14:04;;;;;;;0.65;0.65;;;;;;;;;;5055633;28;20025;-75
2022/03/16 04:16:32;;;;;;;1.00;0.95;;;;;;;;;;5055424;28;20021;-76
2022/03/16 04:18:58;;;;;;;0.93;0.85;;;;;;;;;;5055287;28;20467;-76
2022/03/16 04:21:23;;;;;;;0.93;0.80;;;;;;;;;;5055671;28;20091;-76
2022/03/16 04:23:51;;;;;;;0.35;0.35;;;;;;;;;;5055647;28;20035;-76
2022/03/16 04:26:19;;;;;;;0.70;0.70;;;;;;;;;;5055284;28;20029;-76
2022/03/16 04:28:47;;;;;;;0.03;0.03;;;;;;;;;;5056405;28;20025;-77
2022/03/16 04:31:12;;;;;;;3.00;0.45;;;;;;;;;;5055974;28;20085;-77
2022/03/16 04:33:38;;;;;;;1.77;1.63;;;;;;;;;;5055187;28;20056;-76
2022/03/16 04:36:04;;;;;;;0.35;0.35;;;;;;;;;;5054498;28;20047;-76
2022/03/16 04:38:29;;;;;;;1.02;1.00;;;;;;;;;;5055817;28;20025;-76
2022/03/16 04:40:55;;;;;;;0.32;0.32;;;;;;;;;;5055914;28;20029;-76
2022/03/16 04:43:20;;;;;;;1.80;1.23;;;;;;;;;;5055907;28;20071;-76
2022/03/16 04:45:45;;;;;;;0.00;0.00;;;;;;;;;;5055445;28;20067;-76
2022/03/16 04:48:14;;;;;;;1.27;1.17;;;;;;;;;;5055911;28;20102;-76
2022/03/16 04:50:40;;;;;;;0.60;0.60;;;;;;;;;;5038127;28;20024;-76
2022/03/16 04:53:05;;;;;;;0.20;0.20;;;;;;;;;;5053997;28;20124;-75
2022/03/16 04:55:32;;;;;;;0.88;0.88;;;;;;;;;;5055284;28;20437;-76
2022/03/16 04:58:00;;;;;;;1.23;1.13;;;;;;;;;;5055647;28;20912;-76
2022/03/16 05:00:25;;;;;;;0.35;0.35;;;;;;;;;;5052717;28;20074;-77
2022/03/16 05:02:53;;;;;;;1.40;0.38;;;;;;;;;;5051726;28;20034;-76
2022/03/16 05:05:19;;;;;;;0.57;0.57;;;;;;;;;;5050614;28;20036;-76
2022/03/16 05:07:46;;;;;;;0.95;0.88;;;;;;;;;;5055246;28;20025;-76
2022/03/16 05:10:16;;;;;;;0.45;0.45;;;;;;;;;;5055403;28;20323;-76
2022/03/16 05:12:44;;;;;;;0.88;0.88;;;;;;;;;;5055069;28;20067;-77
2022/03/16 05:15:15;;;;;;;0.08;0.08;;;;;;;;;;5054793;28;20124;-77
2022/03/16 05:17:41;;;;;;;0.85;0.85;;;;;;;;;;5054235;28;20028;-77
2022/03/16 05:20:09;;;;;;;0.43;0.43;;;;;;;;;;5053972;28;20041;-77
2022/03/16 05:22:43;;;;;;;1.23;1.13;;;;;;;;;;5054362;28;20040;-77
2022/03/16 05:25:10;;;;;;;1.83;1.50;;;;;;;;;;5054079;28;20342;-77
2022/03/16 05:27:35;;;;;;;0.43;0.43;;;;;;;;;;5054285;28;20029;-77
2022/03/16 05:30:06;;;;;;;1.30;1.20;;;;;;;;;;5052943;28;20025;-78
2022/03/16 05:32:32;;;;;;;0.10;0.10;;;;;;;;;;5053715;28;20055;-78
2022/03/16 05:34:57;;;;;;;0.20;0.17;;;;;;;;;;5057923;28;20588;-78
2022/03/16 05:37:22;;;;;;;0.50;0.50;;;;;;;;;;5056882;28;20367;-78
2022/03/16 05:39:50;;;;;;;2.17;1.05;;;;;;;;;;5054283;28;20599;-76
2022/03/16 05:42:16;;;;;;;1.50;0.75;;;;;;;;;;5054750;28;20443;-76
2022/03/16 05:44:41;;;;;;;2.38;2.03;;;;;;;;;;5054697;28;20031;-76
2022/03/16 05:47:06;;;;;;;2.75;1.00;;;;;;;;;;5054849;28;20651;-76
2022/03/16 05:49:31;;;;;;;0.93;0.90;;;;;;;;;;5054264;28;20039;-76
2022/03/16 05:51:59;;;;;;;0.32;0.32;;;;;;;;;;5053790;28;20442;-76
2022/03/16 05:54:27;;;;;;;0.65;0.65;;;;;;;;;;5054843;28;20024;-77
2022/03/16 05:56:52;;;;;;;0.35;0.35;;;;;;;;;;5054789;28;20025;-77
2022/03/16 05:59:17;;;;;;;0.10;0.10;;;;;;;;;;5053796;28;20427;-77
2022/03/16 06:01:43;;;;;;;0.10;0.10;;;;;;;;;;5054467;28;20033;-77
2022/03/16 06:04:10;;;;;;;0.50;0.50;;;;;;;;;;5049583;28;20042;-77
2022/03/16 06:06:36;;;;;;;0.22;0.20;;;;;;;;;;5055586;28;20029;-77
2022/03/16 06:09:01;;;;;;;1.00;0.90;;;;;;;;;;5052926;28;20067;-76
2022/03/16 06:11:29;;;;;;;0.40;0.40;;;;;;;;;;5053218;28;20555;-76
2022/03/16 06:13:54;;;;;;;0.57;0.57;;;;;;;;;;5054189;28;20350;-77
2022/03/16 06:16:20;;;;;;;0.50;0.50;;;;;;;;;;5052565;28;20021;-77
2022/03/16 06:18:45;;;;;;;1.38;1.27;;;;;;;;;;5053803;28;20040;-77
2022/03/16 06:21:13;;;;;;;0.90;0.90;;;;;;;;;;5053971;28;20028;-77
2022/03/16 06:23:38;;;;;;;0.50;0.47;;;;;;;;;;5054657;28;20025;-77
2022/03/16 06:26:05;;;;;;;0.55;0.55;;;;;;;;;;5054109;28;20021;-76
2022/03/16 06:28:31;;;;;;;1.48;1.02;;;;;;;;;;5053824;28;20017;-76
2022/03/16 06:30:59;;;;;;;5.18;1.35;;;;;;;;;;5053748;28;20025;-77
2022/03/16 06:33:27;;;;;;;2.20;1.05;;;;;;;;;;5047680;28;20033;-76
2022/03/16 06:35:55;;;;;;;0.22;0.08;;;;;;;;;;5057617;28;20024;-76
2022/03/16 06:38:20;;;;;;;2.17;2.05;;;;;;;;;;5053096;28;20033;-76
2022/03/16 06:40:48;;;;;;;1.70;1.60;;;;;;;;;;5053524;28;20025;-75
2022/03/16 06:43:15;;;;;;;0.32;0.32;;;;;;;;;;5033439;28;20455;-75
2022/03/16 06:45:41;;;;;;;0.30;0.30;;;;;;;;;;5044573;28;20632;-76
2022/03/16 06:48:09;;;;;;;1.48;1.38;;;;;;;;;;5052493;28;20112;-75
2022/03/16 06:50:34;;;;;;;0.38;0.25;;;;;;;;;;5049175;28;20039;-76
2022/03/16 06:53:01;;;;;;;0.15;0.15;;;;;;;;;;5053618;28;20033;-76
2022/03/16 06:55:27;;;;;;;0.73;0.65;;;;;;;;;;5053665;28;20045;-76
2022/03/16 06:57:52;;;;;;;0.95;0.95;;;;;;;;;;5053719;28;20063;-76
2022/03/16 07:00:18;;;;;;;2.13;1.48;;;;;;;;;;5052346;28;20053;-76
2022/03/16 07:02:55;;;;;;;0.47;0.47;;;;;;;;;;5053707;28;20033;-76
2022/03/16 07:05:26;;;;;;;1.40;1.35;;;;;;;;;;5053938;28;20025;-76
2022/03/16 07:07:52;;;;;;;0.63;0.60;;;;;;;;;;5053970;28;20048;-76
2022/03/16 07:10:18;;;;;;;1.85;1.65;;;;;;;;;;5053606;28;20442;-76
2022/03/16 07:12:45;;;;;;;0.68;0.50;;;;;;;;;;5052346;28;20025;-77
2022/03/16 07:15:11;;;;;;;1.05;1.05;;;;;;;;;;5052752;28;20029;-77
2022/03/16 07:17:37;;;;;;;0.25;0.25;;;;;;;;;;5055922;28;20347;-77
2022/03/16 07:20:06;;;;;;;1.30;1.23;;;;;;;;;;5056230;28;20036;-78
2022/03/16 07:22:35;;;;;;;1.00;0.93;;;;;;;;;;5055167;28;20370;-77
2022/03/16 07:25:01;;;;;;;0.93;0.40;;;;;;;;;;5039752;28;20021;-77
2022/03/16 07:27:29;;;;;;;0.75;0.65;;;;;;;;;;5056085;28;20044;-77
2022/03/16 07:29:57;;;;;;;1.55;1.05;;;;;;;;;;5056901;28;20033;-77
2022/03/16 07:32:23;;;;;;;1.73;1.63;;;;;;;;;;5040193;28;20134;-77
2022/03/16 07:34:48;;;;;;;0.25;0.25;;;;;;;;;;5058063;28;20059;-77
2022/03/16 07:37:17;;;;;;;1.25;1.15;;;;;;;;;;5057015;28;20120;-77
2022/03/16 07:39:43;;;;;;;1.20;0.82;;;;;;;;;;5055017;28;20350;-76
2022/03/16 07:42:08;;;;;;;1.08;1.08;;;;;;;;;;5056700;28;20129;-76
2022/03/16 07:44:36;;;;;;;0.80;0.77;;;;;;;;;;5055621;28;20580;-76
2022/03/16 07:47:02;;;;;;;0.82;0.82;;;;;;;;;;5057314;28;20120;-76
2022/03/16 07:49:29;;;;;;;0.38;0.38;;;;;;;;;;5057202;28;20025;-76
2022/03/16 07:51:55;;;;;;;1.08;0.75;;;;;;;;;;5056547;28;20032;-77
2022/03/16 07:54:23;;;;;;;1.27;0.88;;;;;;;;;;5056614;28;20024;-77
2022/03/16 07:56:48;;;;;;;0.70;0.65;;;;;;;;;;5037513;28;20099;-77
2022/03/16 07:59:16;;;;;;;0.47;0.47;;;;;;;;;;5056637;28;20393;-78
2022/03/16 08:01:41;;;;;;;0.88;0.40;;;;;;;;;;5056332;28;20067;-78
2022/03/16 08:04:07;;;;;;;0.47;0.47;;;;;;;;;;5056411;28;20229;-77
2022/03/16 08:06:33;;;;;;;0.32;0.28;;;;;;;;;;5050310;28;20458;-77
2022/03/16 08:08:59;;;;;;;0.98;0.98;;;;;;;;;;5049295;28;20037;-77
2022/03/16 08:11:25;;;;;;;1.00;1.00;;;;;;;;;;5037729;28;20025;-78
2022/03/16 08:13:50;;;;;;;1.23;1.00;;;;;;;;;;5056817;28;20032;-77
2022/03/16 08:16:15;;;;;;;1.90;1.80;;;;;;;;;;5055493;28;20115;-77
2022/03/16 08:18:41;;;;;;;0.82;0.82;;;;;;;;;;5056717;28;20025;-77
2022/03/16 08:21:11;;;;;;;1.52;1.42;;;;;;;;;;5055435;28;20029;-78
2022/03/16 08:23:37;;;;;;;7.22;2.38;;;;;;;;;;5056407;28;20408;-78
2022/03/16 08:26:02;;;;;;;1.67;0.82;;;;;;;;;;5055284;28;20111;-78
2022/03/16 08:28:28;;;;;;;1.63;1.30;;;;;;;;;;5055067;28;20031;-78
2022/03/16 08:30:53;;;;;;;1.15;1.02;;;;;;;;;;5055974;28;20583;-78
2022/03/16 08:33:19;;;;;;;1.52;0.93;;;;;;;;;;5055336;28;20596;-78
2022/03/16 08:35:45;;;;;;;2.70;1.75;;;;;;;;;;5061112;28;20346;-79
2022/03/16 08:38:10;;;;;;;3.05;1.95;;;;;;;;;;5055845;28;20112;-78
2022/03/16 08:40:38;;;;;;;2.83;1.20;;;;;;;;;;5055660;28;20556;-78
2022/03/16 08:43:04;;;;;;;1.50;1.30;;;;;;;;;;5055558;28;20091;-78
2022/03/16 08:45:32;;;;;;;2.33;1.20;;;;;;;;;;5056044;28;20469;-79
2022/03/16 08:47:59;;;;;;;1.48;1.38;;;;;;;;;;5054972;28;20466;-78
2022/03/16 08:50:25;;;;;;;2.45;1.35;;;;;;;;;;5054976;28;20430;-78
2022/03/16 08:52:51;;;;;;;1.90;1.02;;;;;;;;;;5054948;28;20057;-78
2022/03/16 08:55:18;;;;;;;2.38;2.17;;;;;;;;;;5054898;28;20028;-78
2022/03/16 08:57:44;;;;;;;1.55;1.08;;;;;;;;;;5055429;28;20044;-78
2022/03/16 09:00:14;;;;;;;2.08;1.63;;;;;;;;;;5055546;28;20029;-79
2022/03/16 09:02:42;;;;;;;1.17;1.08;;;;;;;;;;5052866;28;20450;-80
2022/03/16 09:05:08;;;;;;;1.25;1.15;;;;;;;;;;5050515;28;20033;-77
2022/03/16 09:07:38;;;;;;;2.33;1.83;;;;;;;;;;5053850;28;20025;-78
2022/03/16 09:10:16;;;;;;;1.67;1.27;;;;;;;;;;5051164;28;20049;-77
2022/03/16 09:12:42;;;;;;;1.25;1.15;;;;;;;;;;5054204;28;20028;-77
2022/03/16 09:15:07;;;;;;;1.52;1.08;;;;;;;;;;5056782;28;20073;-77
2022/03/16 09:17:35;;;;;;;1.65;1.27;;;;;;;;;;5051858;28;20052;-78
2022/03/16 09:20:02;;;;;;;1.52;1.27;;;;;;;;;;5051522;28;20565;-78
2022/03/16 09:22:27;;;;;;;1.83;0.88;;;;;;;;;;5053056;28;20094;-79
2022/03/16 09:24:56;;;;;;;3.58;1.45;;;;;;;;;;5034598;28;20037;-80
2022/03/16 09:27:23;;;;;;;0.40;0.40;;;;;;;;;;5053338;28;20020;-79
2022/03/16 09:29:49;;;;;;;1.45;1.35;;;;;;;;;;5054007;28;20021;-76
2022/03/16 09:32:18;;;;;;;2.17;1.25;;;;;;;;;;5054586;28;20036;-79
2022/03/16 09:34:43;;;;;;;0.85;0.85;;;;;;;;;;5050652;28;20017;-79
2022/03/16 09:37:11;;;;;;;0.50;0.50;;;;;;;;;;5052705;28;20108;-78
2022/03/16 09:39:39;;;;;;;1.27;0.95;;;;;;;;;;5048329;28;20061;-78
2022/03/16 09:42:05;;;;;;;0.60;0.60;;;;;;;;;;5052078;28;20362;-80
2022/03/16 09:44:31;;;;;;;2.95;1.55;;;;;;;;;;5031087;28;20071;-78
2022/03/16 09:47:01;;;;;;;0.52;0.52;;;;;;;;;;5052499;28;20044;-80
2022/03/16 09:49:27;;;;;;;1.63;1.52;;;;;;;;;;5054537;28;20025;-79
2022/03/16 09:51:54;;;;;;;1.02;1.00;;;;;;;;;;5053199;28;20021;-79
2022/03/16 09:54:20;;;;;;;1.02;0.95;;;;;;;;;;5053828;28;20029;-79
2022/03/16 09:56:47;;;;;;;1.25;1.15;;;;;;;;;;5054165;28;20024;-78
2022/03/16 09:59:15;;;;;;;1.40;1.23;;;;;;;;;;5034377;28;20039;-79
2022/03/16 10:01:46;;;;;;;0.73;0.73;;;;;;;;;;5054368;28;20032;-78
2022/03/16 10:04:11;;;;;;;1.13;1.05;;;;;;;;;;5050854;28;20025;-80
2022/03/16 10:06:38;;;;;;;1.83;0.88;;;;;;;;;;5058457;28;20039;-81
2022/03/16 10:15:10;;;;;;;0.95;0.95;;;;;;;;;;5045064;28;20039;-81
2022/03/16 10:17:43;;;;;;;1.55;1.30;;;;;;;;;;5035016;28;20128;-81
2022/03/16 10:20:11;;;;;;;1.98;1.33;;;;;;;;;;5031667;28;20110;-79
2022/03/16 10:22:40;;;;;;;1.40;1.30;;;;;;;;;;5054383;28;20017;-81
2022/03/16 10:25:06;;;;;;;1.85;1.73;;;;;;;;;;5029035;28;20021;-80
2022/03/16 10:27:38;;;;;;;0.98;0.88;;;;;;;;;;5053715;28;20032;-80
2022/03/16 10:30:08;;;;;;;;;;;;;;;;;;5029670;28;20159;-81
2022/03/16 10:32:34;;;;;;;1.23;0.88;;;;;;;;;;5052840;28;19913;-81
2022/03/16 10:35:09;;;;;;;1.20;1.10;;;;;;;;;;5054595;28;20074;-82
2022/03/16 10:37:35;;;;;;;1.10;1.02;;;;;;;;;;5050212;28;20036;-80
2022/03/16 10:40:03;;;;;;;1.35;1.25;;;;;;;;;;5053521;28;20354;-81
2022/03/16 10:48:20;;;;;;;1.02;0.90;;;;;;;;;;5049638;28;20085;-80
2022/03/16 10:50:50;;;;;;;3.83;2.08;;;;;;;;;;5051334;28;20017;-82
2022/03/16 10:53:18;;;;;;;0.88;0.77;;;;;;;;;;5055924;28;20108;-82
2022/03/16 10:55:47;;;;;;;1.95;0.68;;;;;;;;;;5051355;28;20386;-80
2022/03/16 10:58:12;;;;;;;1.52;1.25;;;;;;;;;;5051378;28;20463;-79
2022/03/16 11:00:39;;;;;;;0.98;0.90;;;;;;;;;;5054252;28;20070;-79
2022/03/16 11:03:06;;;;;;;0.68;0.68;;;;;;;;;;5057503;28;20111;-84
2022/03/16 11:05:44;;;;;;;1.85;1.38;;;;;;;;;;5060595;28;20025;-79
2022/03/16 11:08:10;;;;;;;2.55;1.58;;;;;;;;;;5062153;28;20029;-82
2022/03/16 11:10:40;;;;;;;1.95;1.77;;;;;;;;;;5055135;28;20021;-83
2022/03/16 11:15:55;;;;;;;1.13;0.55;;;;;;;;;;5056381;28;20043;-84
2022/03/16 11:18:23;;;;;;;1.88;1.40;;;;;;;;;;5054153;28;20029;-83
2022/03/16 11:20:59;;;;;;;4.95;1.55;;;;;;;;;;5055171;28;20036;-82
2022/03/16 11:26:52;;;;;;;1.40;1.30;;;;;;;;;;5055151;28;20040;-82
2022/03/16 11:29:41;;;;;;;1.13;0.55;;;;;;;;;;5051263;28;20056;-88
2022/03/16 11:32:12;;;;;;;3.00;1.67;;;;;;;;;;5056453;28;20405;-83
2022/03/16 11:34:38;;;;;;;0.85;0.75;;;;;;;;;;5055486;28;20055;-84
2022/03/16 11:37:12;;;;;;;2.10;1.08;;;;;;;;;;5056559;28;20438;-82
2022/03/16 11:39:45;;;;;;;1.20;0.95;;;;;;;;;;5052233;28;20040;-84
2022/03/16 11:42:18;;;;;;;1.73;1.00;;;;;;;;;;5055690;28;20505;-85
2022/03/16 11:44:44;;;;;;;2.70;1.52;;;;;;;;;;5057693;28;20044;-86
2022/03/16 11:47:09;;;;;;;1.75;1.40;;;;;;;;;;5057365;28;20025;-82
2022/03/16 11:49:44;;;;;;;1.27;0.85;;;;;;;;;;5054693;28;20020;-82
2022/03/16 11:52:10;;;;;;;0.90;0.70;;;;;;;;;;5055136;28;20117;-83
2022/03/16 11:54:38;;;;;;;1.30;1.00;;;;;;;;;;5056415;28;20573;-82
2022/03/16 11:57:03;;;;;;;1.13;1.10;;;;;;;;;;5058751;28;20029;-85
2022/03/16 11:59:31;;;;;;;1.27;0.75;;;;;;;;;;5060242;28;20043;-84
2022/03/16 12:02:07;;;;;;;2.20;1.35;;;;;;;;;;5056537;28;20086;-82
2022/03/16 12:04:40;;;;;;;0.77;0.50;;;;;;;;;;5050296;28;20035;-82
2022/03/16 12:07:12;;;;;;;1.55;1.45;;;;;;;;;;5057446;28;20037;-84
2022/03/16 12:09:42;;;;;;;3.45;1.10;;;;;;;;;;5056816;28;20097;-82
2022/03/16 12:15:14;;;;;;;1.73;1.35;;;;;;;;;;5049329;28;20093;-84
2022/03/16 12:17:52;;;;;;;1.05;0.73;;;;;;;;;;5054982;28;20086;-83
2022/03/16 12:20:21;;;;;;;1.60;1.50;;;;;;;;;;5055943;28;20044;-84
2022/03/16 12:22:49;;;;;;;1.83;1.30;;;;;;;;;;5055545;28;20029;-82
2022/03/16 12:25:27;;;;;;;2.05;1.83;;;;;;;;;;5061144;28;20033;-85
2022/03/16 12:31:02;;;;;;;2.00;1.25;;;;;;;;;;5054673;28;20138;-82
2022/03/16 12:33:42;;;;;;;1.48;1.10;;;;;;;;;;5051241;28;20047;-83
2022/03/16 12:36:12;;;;;;;2.35;1.92;;;;;;;;;;5054544;28;20029;-83
2022/03/16 12:38:39;;;;;;;1.98;1.13;;;;;;;;;;5054784;28;20037;-80
2022/03/16 12:43:52;;;;;;;1.60;1.50;;;;;;;;;;5055696;28;20582;-81
2022/03/16 12:46:25;;;;;;;2.15;1.17;;;;;;;;;;5051648;28;20060;-78
2022/03/16 12:49:01;;;;;;;3.10;1.55;;;;;;;;;;5053622;28;20040;-81
2022/03/16 12:51:43;;;;;;;1.88;1.42;;;;;;;;;;5052049;28;20021;-85
2022/03/16 12:54:09;;;;;;;0.95;0.75;;;;;;;;;;5051316;28;20035;-82
2022/03/16 12:56:44;;;;;;;0.77;0.70;;;;;;;;;;5055559;28;20359;-82
2022/03/16 12:59:23;;;;;;;1.13;0.98;;;;;;;;;;5056179;28;20032;-81
2022/03/16 13:01:49;;;;;;;1.40;1.17;;;;;;;;;;5054447;28;20052;-81
2022/03/16 13:04:16;;;;;;;2.80;1.75;;;;;;;;;;5050733;28;20445;-81
2022/03/16 13:06:44;;;;;;;0.50;0.50;;;;;;;;;;5057065;28;20057;-80
2022/03/16 13:09:15;;;;;;;0.70;0.65;;;;;;;;;;5056297;28;20057;-80
2022/03/16 13:11:48;;;;;;;1.38;1.13;;;;;;;;;;5038904;28;20017;-81
2022/03/16 13:14:17;;;;;;;0.82;0.68;;;;;;;;;;5052465;28;20020;-80
2022/03/16 13:16:43;;;;;;;5.32;2.25;;;;;;;;;;5054426;28;20028;-80
2022/03/16 13:19:30;;;;;;;1.13;0.73;;;;;;;;;;5054839;28;20055;-80
2022/03/16 13:22:06;;;;;;;1.45;1.02;;;;;;;;;;5054243;28;20029;-81
2022/03/16 13:24:41;;;;;;;2.40;1.38;;;;;;;;;;5055809;28;20025;-82
2022/03/16 13:27:11;;;;;;;0.90;0.85;;;;;;;;;;5055581;28;20435;-80
2022/03/16 13:29:44;;;;;;;1.95;1.48;;;;;;;;;;5053386;28;20012;-81
2022/03/16 13:32:10;;;;;;;4.88;1.25;;;;;;;;;;5051796;28;20029;-79
2022/03/16 13:34:37;;;;;;;1.77;1.63;;;;;;;;;;5053897;28;20020;-79
2022/03/16 13:37:44;;;;;;;2.25;1.88;;;;;;;;;;5056180;28;20025;-80
2022/03/16 13:40:11;;;;;;;0.85;0.82;;;;;;;;;;5047352;28;20128;-80
2022/03/16 13:42:37;;;;;;;1.05;0.50;;;;;;;;;;5031083;28;20039;-78
2022/03/16 13:45:32;;;;;;;1.85;1.63;;;;;;;;;;5057106;28;20066;-80
2022/03/16 13:48:11;;;;;;;0.75;0.75;;;;;;;;;;5056293;28;20035;-79
2022/03/16 13:50:37;;;;;;;1.08;1.05;;;;;;;;;;5047927;28;20017;-85
2022/03/16 13:53:15;;;;;;;0.60;0.60;;;;;;;;;;5050950;28;20029;-81
2022/03/16 13:55:41;;;;;;;0.98;0.93;;;;;;;;;;5054815;28;20053;-79
2022/03/16 13:58:11;;;;;;;0.73;0.73;;;;;;;;;;5053804;28;20059;-84
2022/03/16 14:00:49;;;;;;;0.73;0.73;;;;;;;;;;5051380;28;20033;-81
2022/03/16 14:03:22;;;;;;;0.57;0.57;;;;;;;;;;5054269;28;20505;-83
2022/03/16 14:05:49;;;;;;;0.45;0.45;;;;;;;;;;5053879;28;20102;-82
2022/03/16 14:08:14;;;;;;;5.28;1.20;;;;;;;;;;5039865;28;20052;-83
2022/03/16 14:10:41;;;;;;;1.25;0.93;;;;;;;;;;5036726;28;20028;-85
2022/03/16 14:13:08;;;;;;;0.68;0.68;;;;;;;;;;5055906;28;20515;-82
2022/03/16 14:15:34;;;;;;;2.42;1.13;;;;;;;;;;5056883;28;20389;-85
2022/03/16 14:18:16;;;;;;;2.97;1.60;;;;;;;;;;5057196;28;20067;-82
2022/03/16 14:20:51;;;;;;;0.93;0.75;;;;;;;;;;5065403;28;20047;-83
2022/03/16 14:23:19;;;;;;;1.90;1.08;;;;;;;;;;5064033;28;20083;-77
2022/03/16 14:25:56;;;;;;;0.40;0.40;;;;;;;;;;5060626;28;20092;-84
2022/03/16 14:28:22;;;;;;;4.78;1.75;;;;;;;;;;5050862;28;20025;-81
2022/03/16 14:30:49;;;;;;;1.77;1.35;;;;;;;;;;5066677;28;20023;-81
2022/03/16 14:33:25;;;;;;;0.55;0.55;;;;;;;;;;5060212;28;20453;-84
2022/03/16 14:35:54;;;;;;;1.88;0.82;;;;;;;;;;5057864;28;20033;-83
2022/03/16 14:38:19;;;;;;;1.52;1.02;;;;;;;;;;5055132;28;20041;-85
2022/03/16 14:40:54;;;;;;;1.73;1.17;;;;;;;;;;5054273;28;20332;-82
2022/03/16 14:43:21;;;;;;;1.83;1.63;;;;;;;;;;5049954;28;20382;-85
2022/03/16 14:45:46;;;;;;;1.33;1.23;;;;;;;;;;5051042;28;20039;-82
2022/03/16 14:48:12;;;;;;;0.52;0.52;;;;;;;;;;5050764;28;20021;-82
2022/03/16 14:50:37;;;;;;;1.25;1.13;;;;;;;;;;5053463;28;20450;-79
2022/03/16 14:53:13;;;;;;;0.70;0.55;;;;;;;;;;5048278;28;20033;-83
2022/03/16 14:55:40;;;;;;;1.65;1.45;;;;;;;;;;5053519;28;20040;-83
2022/03/16 14:58:08;;;;;;;4.57;1.77;;;;;;;;;;5053684;28;20056;-81
2022/03/16 15:00:39;;;;;;;0.70;0.70;;;;;;;;;;5053119;28;20108;-83
2022/03/16 15:03:08;;;;;;;1.60;0.63;;;;;;;;;;5053689;28;20021;-82
2022/03/16 15:05:33;;;;;;;0.75;0.75;;;;;;;;;;5053546;28;20450;-83
2022/03/16 15:08:01;;;;;;;2.75;1.83;;;;;;;;;;5053635;28;20029;-84
2022/03/16 15:10:26;;;;;;;1.77;1.35;;;;;;;;;;5049621;28;20021;-82
2022/03/16 15:12:52;;;;;;;2.22;2.03;;;;;;;;;;5052548;28;20051;-84